sensor_id;sensor_type;location;lat;lon;timestamp;P1;durP1;ratioP1;P2;durP2;ratioP2
53939;SDS011;39850;43.324;21.916;2023-07-16T00:02:56;12.0;;;11.0;;
53939;SDS011;39850;43.324;21.916;2023-07-16T00:07:33;12.0;;;11.0;;
53939;SDS011;39850;43.324;21.916;2023-07-16T00:12:10;12.0;;;11.0;;
53939;SDS011;39850;43.324;21.916;2023-07-16T00:16:46;12.0;;;11.0;;
53939;SDS011;39850;43.324;21.916;2023-07-16T00:21:24;12.0;;;11.0;;
53939;SDS011;39850;43.324;21.916;2023-07-16T00:26:01;12.0;;;11.0;;
53939;SDS011;39850;43.324;21.916;2023-07-16T00:30:38;12.0;;;11.0;;
53939;SDS011;39850;43.324;21.916;2023-07-16T00:35:15;11.0;;;11.0;;
53939;SDS011;39850;43.324;21.916;2023-07-16T00:39:51;11.0;;;11.0;;
53939;SDS011;39850;43.324;21.916;2023-07-16T01:17:34;12.0;;;11.0;;
53939;SDS011;39850;43.324;21.916;2023-07-16T01:24:09;12.0;;;11.0;;
53939;SDS011;39850;43.324;21.916;2023-07-16T01:29:42;12.0;;;11.0;;
53939;SDS011;39850;43.324;21.916;2023-07-16T01:34:34;12.0;;;11.0;;
53939;SDS011;39850;43.324;21.916;2023-07-16T01:39:15;12.0;;;11.0;;
53939;SDS011;39850;43.324;21.916;2023-07-16T01:43:52;12.0;;;11.0;;
53939;SDS011;39850;43.324;21.916;2023-07-16T01:48:38;12.0;;;11.0;;
53939;SDS011;39850;43.324;21.916;2023-07-16T01:53:15;12.0;;;11.0;;
53939;SDS011;39850;43.324;21.916;2023-07-16T01:57:52;11.0;;;11.0;;
53939;SDS011;39850;43.324;21.916;2023-07-16T02:02:28;11.0;;;11.0;;
53939;SDS011;39850;43.324;21.916;2023-07-16T02:34:47;12.0;;;11.0;;
53939;SDS011;39850;43.324;21.916;2023-07-16T02:39:25;12.0;;;11.0;;
53939;SDS011;39850;43.324;21.916;2023-07-16T02:44:06;12.0;;;11.0;;
53939;SDS011;39850;43.324;21.916;2023-07-16T02:48:43;12.0;;;11.0;;
53939;SDS011;39850;43.324;21.916;2023-07-16T02:53:19;12.0;;;11.0;;
53939;SDS011;39850;43.324;21.916;2023-07-16T02:57:56;12.0;;;11.0;;
53939;SDS011;39850;43.324;21.916;2023-07-16T03:02:33;12.0;;;11.0;;
53939;SDS011;39850;43.324;21.916;2023-07-16T03:07:09;12.0;;;11.0;;
53939;SDS011;39850;43.324;21.916;2023-07-16T03:11:46;12.0;;;11.0;;
53939;SDS011;39850;43.324;21.916;2023-07-16T03:16:22;12.0;;;11.0;;
53939;SDS011;39850;43.324;21.916;2023-07-16T03:20:59;12.0;;;11.0;;
53939;SDS011;39850;43.324;21.916;2023-07-16T03:57:54;12.0;;;11.0;;
53939;SDS011;39850;43.324;21.916;2023-07-16T04:02:31;12.0;;;11.0;;
53939;SDS011;39850;43.324;21.916;2023-07-16T04:07:08;12.0;;;11.0;;
53939;SDS011;39850;43.324;21.916;2023-07-16T04:11:45;12.0;;;11.0;;
53939;SDS011;39850;43.324;21.916;2023-07-16T04:16:22;12.0;;;11.0;;
53939;SDS011;39850;43.324;21.916;2023-07-16T04:20:58;12.0;;;11.0;;
53939;SDS011;39850;43.324;21.916;2023-07-16T04:25:35;12.0;;;11.0;;
53939;SDS011;39850;43.324;21.916;2023-07-16T04:30:13;12.0;;;11.0;;
53939;SDS011;39850;43.324;21.916;2023-07-16T04:34:49;12.0;;;11.0;;
53939;SDS011;39850;43.324;21.916;2023-07-16T04:39:26;12.0;;;11.0;;
53939;SDS011;39850;43.324;21.916;2023-07-16T04:44:05;12.0;;;11.0;;
53939;SDS011;39850;43.324;21.916;2023-07-16T05:16:22;12.0;;;11.0;;
53939;SDS011;39850;43.324;21.916;2023-07-16T05:20:58;12.0;;;11.0;;
53939;SDS011;39850;43.324;21.916;2023-07-16T05:25:35;12.0;;;11.0;;
53939;SDS011;39850;43.324;21.916;2023-07-16T05:30:13;12.0;;;11.0;;
53939;SDS011;39850;43.324;21.916;2023-07-16T05:34:49;12.0;;;11.0;;
53939;SDS011;39850;43.324;21.916;2023-07-16T05:39:26;12.0;;;11.0;;
53939;SDS011;39850;43.324;21.916;2023-07-16T05:44:03;12.0;;;11.0;;
53939;SDS011;39850;43.324;21.916;2023-07-16T05:48:39;12.0;;;12.0;;
53939;SDS011;39850;43.324;21.916;2023-07-16T05:53:16;12.0;;;12.0;;
53939;SDS011;39850;43.324;21.916;2023-07-16T05:57:53;12.0;;;12.0;;
53939;SDS011;39850;43.324;21.916;2023-07-16T06:02:30;12.0;;;12.0;;
53939;SDS011;39850;43.324;21.916;2023-07-16T06:39:31;11.0;;;10.0;;
53939;SDS011;39850;43.324;21.916;2023-07-16T06:44:08;11.0;;;10.0;;
53939;SDS011;39850;43.324;21.916;2023-07-16T06:48:45;11.0;;;10.0;;
53939;SDS011;39850;43.324;21.916;2023-07-16T06:53:22;11.0;;;10.0;;
53939;SDS011;39850;43.324;21.916;2023-07-16T06:58:01;11.0;;;9.0;;
53939;SDS011;39850;43.324;21.916;2023-07-16T07:02:39;11.0;;;9.0;;
53939;SDS011;39850;43.324;21.916;2023-07-16T07:07:16;11.0;;;9.0;;
53939;SDS011;39850;43.324;21.916;2023-07-16T07:11:52;11.0;;;9.0;;
53939;SDS011;39850;43.324;21.916;2023-07-16T07:16:29;11.0;;;9.0;;
53939;SDS011;39850;43.324;21.916;2023-07-16T07:21:06;11.0;;;9.0;;
53939;SDS011;39850;43.324;21.916;2023-07-16T07:57:58;11.0;;;10.0;;
53939;SDS011;39850;43.324;21.916;2023-07-16T08:02:34;11.0;;;10.0;;
53939;SDS011;39850;43.324;21.916;2023-07-16T08:07:11;12.0;;;10.0;;
53939;SDS011;39850;43.324;21.916;2023-07-16T08:11:47;12.0;;;10.0;;
53939;SDS011;39850;43.324;21.916;2023-07-16T08:16:24;11.0;;;10.0;;
53939;SDS011;39850;43.324;21.916;2023-07-16T08:21:00;11.0;;;10.0;;
53939;SDS011;39850;43.324;21.916;2023-07-16T08:25:37;12.0;;;10.0;;
53939;SDS011;39850;43.324;21.916;2023-07-16T08:30:15;12.0;;;10.0;;
53939;SDS011;39850;43.324;21.916;2023-07-16T08:34:52;12.0;;;10.0;;
53939;SDS011;39850;43.324;21.916;2023-07-16T08:39:28;11.0;;;10.0;;
53939;SDS011;39850;43.324;21.916;2023-07-16T08:44:06;11.0;;;10.0;;
53939;SDS011;39850;43.324;21.916;2023-07-16T09:16:34;14.0;;;13.0;;
53939;SDS011;39850;43.324;21.916;2023-07-16T09:21:11;14.0;;;13.0;;
53939;SDS011;39850;43.324;21.916;2023-07-16T09:25:50;20.0;;;20.0;;
53939;SDS011;39850;43.324;21.916;2023-07-16T09:30:34;20.0;;;20.0;;
53939;SDS011;39850;43.324;21.916;2023-07-16T09:35:17;20.0;;;20.0;;
53939;SDS011;39850;43.324;21.916;2023-07-16T09:39:55;14.0;;;13.0;;
53939;SDS011;39850;43.324;21.916;2023-07-16T09:44:34;14.0;;;13.0;;
53939;SDS011;39850;43.324;21.916;2023-07-16T09:49:16;20.0;;;20.0;;
53939;SDS011;39850;43.324;21.916;2023-07-16T09:53:57;20.0;;;20.0;;
53939;SDS011;39850;43.324;21.916;2023-07-16T09:58:40;13.0;;;12.0;;
53939;SDS011;39850;43.324;21.916;2023-07-16T10:03:18;13.0;;;12.0;;
53939;SDS011;39850;43.324;21.916;2023-07-16T10:36:00;13.0;;;12.0;;
53939;SDS011;39850;43.324;21.916;2023-07-16T10:40:41;13.0;;;12.0;;
53939;SDS011;39850;43.324;21.916;2023-07-16T10:45:19;13.0;;;12.0;;
53939;SDS011;39850;43.324;21.916;2023-07-16T10:49:56;18.0;;;18.0;;
53939;SDS011;39850;43.324;21.916;2023-07-16T10:54:34;18.0;;;18.0;;
53939;SDS011;39850;43.324;21.916;2023-07-16T10:59:11;22.0;;;20.0;;
53939;SDS011;39850;43.324;21.916;2023-07-16T11:03:47;22.0;;;20.0;;
53939;SDS011;39850;43.324;21.916;2023-07-16T11:08:25;23.0;;;22.0;;
53939;SDS011;39850;43.324;21.916;2023-07-16T11:13:01;23.0;;;22.0;;
53939;SDS011;39850;43.324;21.916;2023-07-16T11:17:39;22.0;;;20.0;;
53939;SDS011;39850;43.324;21.916;2023-07-16T11:22:17;22.0;;;20.0;;
53939;SDS011;39850;43.324;21.916;2023-07-16T11:59:24;14.0;;;12.0;;
53939;SDS011;39850;43.324;21.916;2023-07-16T12:04:01;14.0;;;12.0;;
53939;SDS011;39850;43.324;21.916;2023-07-16T12:08:38;14.0;;;12.0;;
53939;SDS011;39850;43.324;21.916;2023-07-16T12:13:16;14.0;;;12.0;;
53939;SDS011;39850;43.324;21.916;2023-07-16T12:17:53;14.0;;;12.0;;
53939;SDS011;39850;43.324;21.916;2023-07-16T12:22:31;14.0;;;12.0;;
53939;SDS011;39850;43.324;21.916;2023-07-16T12:27:17;15.0;;;12.0;;
53939;SDS011;39850;43.324;21.916;2023-07-16T12:31:55;15.0;;;12.0;;
53939;SDS011;39850;43.324;21.916;2023-07-16T12:36:32;15.0;;;12.0;;
53939;SDS011;39850;43.324;21.916;2023-07-16T12:41:08;15.0;;;12.0;;
53939;SDS011;39850;43.324;21.916;2023-07-16T12:45:45;15.0;;;12.0;;
53939;SDS011;39850;43.324;21.916;2023-07-16T13:17:59;14.0;;;12.0;;
53939;SDS011;39850;43.324;21.916;2023-07-16T13:22:36;14.0;;;12.0;;
53939;SDS011;39850;43.324;21.916;2023-07-16T13:27:23;14.0;;;12.0;;
53939;SDS011;39850;43.324;21.916;2023-07-16T13:32:00;14.0;;;12.0;;
53939;SDS011;39850;43.324;21.916;2023-07-16T13:36:36;15.0;;;12.0;;
53939;SDS011;39850;43.324;21.916;2023-07-16T13:41:13;15.0;;;12.0;;
53939;SDS011;39850;43.324;21.916;2023-07-16T13:45:50;15.0;;;12.0;;
53939;SDS011;39850;43.324;21.916;2023-07-16T13:50:27;15.0;;;12.0;;
53939;SDS011;39850;43.324;21.916;2023-07-16T13:55:06;15.0;;;12.0;;
53939;SDS011;39850;43.324;21.916;2023-07-16T13:59:43;15.0;;;12.0;;
53939;SDS011;39850;43.324;21.916;2023-07-16T14:04:19;15.0;;;12.0;;
53939;SDS011;39850;43.324;21.916;2023-07-16T14:41:12;14.0;;;12.0;;
53939;SDS011;39850;43.324;21.916;2023-07-16T14:45:49;14.0;;;12.0;;
53939;SDS011;39850;43.324;21.916;2023-07-16T14:50:26;14.0;;;12.0;;
53939;SDS011;39850;43.324;21.916;2023-07-16T14:55:06;14.0;;;12.0;;
53939;SDS011;39850;43.324;21.916;2023-07-16T14:59:44;14.0;;;12.0;;
53939;SDS011;39850;43.324;21.916;2023-07-16T15:04:21;14.0;;;12.0;;
53939;SDS011;39850;43.324;21.916;2023-07-16T15:08:58;13.0;;;12.0;;
53939;SDS011;39850;43.324;21.916;2023-07-16T15:13:34;13.0;;;12.0;;
53939;SDS011;39850;43.324;21.916;2023-07-16T15:18:11;13.0;;;12.0;;
53939;SDS011;39850;43.324;21.916;2023-07-16T15:22:48;13.0;;;12.0;;
53939;SDS011;39850;43.324;21.916;2023-07-16T15:59:44;19.0;;;12.0;;
53939;SDS011;39850;43.324;21.916;2023-07-16T16:04:21;19.0;;;12.0;;
53939;SDS011;39850;43.324;21.916;2023-07-16T16:08:57;16.0;;;12.0;;
53939;SDS011;39850;43.324;21.916;2023-07-16T16:13:34;16.0;;;12.0;;
53939;SDS011;39850;43.324;21.916;2023-07-16T16:18:14;13.0;;;11.0;;
53939;SDS011;39850;43.324;21.916;2023-07-16T16:22:51;13.0;;;11.0;;
53939;SDS011;39850;43.324;21.916;2023-07-16T16:27:27;12.0;;;11.0;;
53939;SDS011;39850;43.324;21.916;2023-07-16T16:32:08;12.0;;;11.0;;
53939;SDS011;39850;43.324;21.916;2023-07-16T16:36:46;12.0;;;11.0;;
53939;SDS011;39850;43.324;21.916;2023-07-16T16:41:22;13.0;;;11.0;;
53939;SDS011;39850;43.324;21.916;2023-07-16T16:46:00;13.0;;;11.0;;
53939;SDS011;39850;43.324;21.916;2023-07-16T17:18:18;31.0;;;23.0;;
53939;SDS011;39850;43.324;21.916;2023-07-16T17:22:56;31.0;;;23.0;;
53939;SDS011;39850;43.324;21.916;2023-07-16T17:27:36;22.0;;;17.0;;
53939;SDS011;39850;43.324;21.916;2023-07-16T17:32:14;22.0;;;17.0;;
53939;SDS011;39850;43.324;21.916;2023-07-16T17:36:51;22.0;;;17.0;;
53939;SDS011;39850;43.324;21.916;2023-07-16T17:41:28;14.0;;;11.0;;
53939;SDS011;39850;43.324;21.916;2023-07-16T17:46:06;14.0;;;11.0;;
53939;SDS011;39850;43.324;21.916;2023-07-16T17:50:43;13.0;;;11.0;;
53939;SDS011;39850;43.324;21.916;2023-07-16T17:55:20;13.0;;;11.0;;
53939;SDS011;39850;43.324;21.916;2023-07-16T17:59:57;14.0;;;11.0;;
53939;SDS011;39850;43.324;21.916;2023-07-16T18:04:33;14.0;;;11.0;;
53939;SDS011;39850;43.324;21.916;2023-07-16T18:41:27;13.0;;;11.0;;
53939;SDS011;39850;43.324;21.916;2023-07-16T18:46:03;13.0;;;11.0;;
53939;SDS011;39850;43.324;21.916;2023-07-16T18:50:40;14.0;;;12.0;;
53939;SDS011;39850;43.324;21.916;2023-07-16T18:55:17;14.0;;;12.0;;
53939;SDS011;39850;43.324;21.916;2023-07-16T18:59:53;14.0;;;12.0;;
53939;SDS011;39850;43.324;21.916;2023-07-16T19:04:30;14.0;;;12.0;;
53939;SDS011;39850;43.324;21.916;2023-07-16T19:09:07;16.0;;;12.0;;
53939;SDS011;39850;43.324;21.916;2023-07-16T19:13:43;16.0;;;12.0;;
53939;SDS011;39850;43.324;21.916;2023-07-16T19:18:20;17.0;;;12.0;;
53939;SDS011;39850;43.324;21.916;2023-07-16T19:22:56;17.0;;;12.0;;
53939;SDS011;39850;43.324;21.916;2023-07-16T19:59:53;14.0;;;12.0;;
53939;SDS011;39850;43.324;21.916;2023-07-16T20:04:29;14.0;;;12.0;;
53939;SDS011;39850;43.324;21.916;2023-07-16T20:09:06;14.0;;;12.0;;
53939;SDS011;39850;43.324;21.916;2023-07-16T20:13:42;14.0;;;12.0;;
53939;SDS011;39850;43.324;21.916;2023-07-16T20:18:19;14.0;;;12.0;;
53939;SDS011;39850;43.324;21.916;2023-07-16T20:22:56;14.0;;;12.0;;
53939;SDS011;39850;43.324;21.916;2023-07-16T20:27:32;14.0;;;12.0;;
53939;SDS011;39850;43.324;21.916;2023-07-16T20:32:10;14.0;;;12.0;;
53939;SDS011;39850;43.324;21.916;2023-07-16T20:36:46;14.0;;;12.0;;
53939;SDS011;39850;43.324;21.916;2023-07-16T20:41:23;15.0;;;13.0;;
53939;SDS011;39850;43.324;21.916;2023-07-16T20:46:00;15.0;;;13.0;;
53939;SDS011;39850;43.324;21.916;2023-07-16T21:18:17;14.0;;;13.0;;
53939;SDS011;39850;43.324;21.916;2023-07-16T21:22:54;14.0;;;13.0;;
53939;SDS011;39850;43.324;21.916;2023-07-16T21:27:48;14.0;;;13.0;;
53939;SDS011;39850;43.324;21.916;2023-07-16T21:32:31;14.0;;;13.0;;
53939;SDS011;39850;43.324;21.916;2023-07-16T21:37:07;14.0;;;13.0;;
53939;SDS011;39850;43.324;21.916;2023-07-16T21:41:44;14.0;;;13.0;;
53939;SDS011;39850;43.324;21.916;2023-07-16T21:46:21;14.0;;;13.0;;
53939;SDS011;39850;43.324;21.916;2023-07-16T21:50:57;14.0;;;13.0;;
53939;SDS011;39850;43.324;21.916;2023-07-16T21:55:34;14.0;;;13.0;;
53939;SDS011;39850;43.324;21.916;2023-07-16T22:00:13;14.0;;;13.0;;
53939;SDS011;39850;43.324;21.916;2023-07-16T22:04:50;14.0;;;13.0;;
53939;SDS011;39850;43.324;21.916;2023-07-16T22:41:50;13.0;;;12.0;;
53939;SDS011;39850;43.324;21.916;2023-07-16T22:46:27;13.0;;;12.0;;
53939;SDS011;39850;43.324;21.916;2023-07-16T22:51:04;13.0;;;12.0;;
53939;SDS011;39850;43.324;21.916;2023-07-16T22:55:40;13.0;;;12.0;;
53939;SDS011;39850;43.324;21.916;2023-07-16T23:00:18;13.0;;;12.0;;
53939;SDS011;39850;43.324;21.916;2023-07-16T23:04:55;13.0;;;12.0;;
53939;SDS011;39850;43.324;21.916;2023-07-16T23:09:32;13.0;;;12.0;;
53939;SDS011;39850;43.324;21.916;2023-07-16T23:14:09;13.0;;;12.0;;
53939;SDS011;39850;43.324;21.916;2023-07-16T23:18:46;13.0;;;13.0;;
53939;SDS011;39850;43.324;21.916;2023-07-16T23:23:22;13.0;;;13.0;;
53939;SDS011;39850;43.324;21.916;2023-07-16T23:27:59;13.0;;;13.0;;
